Time;durP1;ratioP1;P1;durP2;ratioP2;P2;SDS_P1;SDS_P2;PMS_P1;PMS_P2;Temp;Humidity;BMP_temperature;BMP_pressure;BME280_temperature;BME280_humidity;BME280_pressure;Samples;Min_cycle;Max_cycle;Signal;HPM_P1;HPM_P2
2020/12/08 00:01:50;;;;;;;3.20;1.95;;;20.90;41.30;;;;;;5043807;28;20107;-45
2020/12/08 00:04:15;;;;;;;3.15;2.13;;;20.90;41.40;;;;;;5048153;28;20064;-43
2020/12/08 00:06:41;;;;;;;1.95;1.80;;;20.80;41.40;;;;;;5042411;28;20051;-44
2020/12/08 00:09:07;;;;;;;2.42;1.73;;;20.80;41.50;;;;;;5046236;28;20420;-45
2020/12/08 00:11:32;;;;;;;2.42;1.67;;;20.80;41.40;;;;;;5047923;28;20107;-53
2020/12/08 00:13:58;;;;;;;2.63;1.85;;;20.80;41.50;;;;;;5042850;28;20021;-46
2020/12/08 00:16:24;;;;;;;2.05;1.95;;;20.80;41.50;;;;;;5047499;28;20021;-44
2020/12/08 00:18:49;;;;;;;2.58;1.92;;;20.80;41.50;;;;;;5044901;28;20026;-47
2020/12/08 00:21:16;;;;;;;2.95;2.17;;;20.80;41.50;;;;;;5043004;28;20040;-44
2020/12/08 00:23:42;;;;;;;1.77;1.45;;;20.70;41.50;;;;;;5040391;28;20249;-43
2020/12/08 00:26:07;;;;;;;2.45;1.58;;;20.70;41.50;;;;;;5043265;28;20129;-46
2020/12/08 00:28:34;;;;;;;2.90;1.67;;;20.70;41.50;;;;;;5048243;28;20429;-43
2020/12/08 00:31:00;;;;;;;2.15;1.80;;;20.70;41.50;;;;;;5039511;28;20494;-45
2020/12/08 00:33:26;;;;;;;2.67;1.50;;;20.70;41.50;;;;;;5047984;28;20047;-43
2020/12/08 00:35:52;;;;;;;1.70;1.38;;;20.70;41.50;;;;;;5042113;28;20036;-49
2020/12/08 00:38:17;;;;;;;1.95;1.55;;;20.70;41.50;;;;;;5046177;28;20032;-46
2020/12/08 00:40:43;;;;;;;1.42;1.30;;;20.60;41.40;;;;;;5043300;28;20061;-43
2020/12/08 00:43:09;;;;;;;2.58;1.92;;;20.60;41.40;;;;;;5046843;28;20037;-45
2020/12/08 00:45:34;;;;;;;2.30;1.60;;;20.60;41.50;;;;;;5042494;28;20033;-45
2020/12/08 00:48:00;;;;;;;2.92;1.83;;;20.60;41.50;;;;;;5047695;28;20095;-45
2020/12/08 00:50:25;;;;;;;1.60;1.50;;;20.60;41.40;;;;;;5041011;28;20032;-44
2020/12/08 00:52:51;;;;;;;2.08;1.33;;;20.60;41.50;;;;;;5047988;28;20112;-48
2020/12/08 00:55:16;;;;;;;2.88;2.05;;;20.50;41.50;;;;;;5043708;28;20033;-45
2020/12/08 00:57:42;;;;;;;2.25;1.92;;;20.50;41.40;;;;;;5047130;28;20017;-45
2020/12/08 01:00:07;;;;;;;2.85;1.52;;;20.50;41.50;;;;;;5049240;28;20427;-48
2020/12/08 01:02:33;;;;;;;3.33;1.95;;;20.50;41.50;;;;;;5043785;28;20041;-45
2020/12/08 01:04:59;;;;;;;1.80;1.27;;;20.50;41.50;;;;;;5032215;28;20091;-49
2020/12/08 01:07:24;;;;;;;2.17;1.05;;;20.50;41.50;;;;;;5047470;28;20033;-47
2020/12/08 01:09:50;;;;;;;1.88;1.52;;;20.50;41.50;;;;;;5047021;28;20060;-44
2020/12/08 01:12:15;;;;;;;2.95;1.42;;;20.50;41.50;;;;;;5051629;28;20040;-46
2020/12/08 01:14:41;;;;;;;1.42;1.00;;;20.50;41.50;;;;;;5047755;28;20040;-44
2020/12/08 01:17:06;;;;;;;1.83;1.42;;;20.40;41.50;;;;;;5048701;28;20033;-48
2020/12/08 01:19:32;;;;;;;1.38;1.27;;;20.40;41.50;;;;;;5046534;28;20032;-46
2020/12/08 01:21:58;;;;;;;2.63;1.60;;;20.40;41.50;;;;;;5050960;28;20531;-46
2020/12/08 01:24:24;;;;;;;1.73;1.15;;;20.40;41.50;;;;;;5039026;28;20024;-46
2020/12/08 01:26:49;;;;;;;1.67;1.33;;;20.30;41.60;;;;;;5051016;28;20134;-51
2020/12/08 01:29:15;;;;;;;1.27;0.98;;;20.40;41.60;;;;;;5047126;28;20611;-45
2020/12/08 01:31:40;;;;;;;2.10;1.42;;;20.30;41.60;;;;;;5039471;28;20543;-45
2020/12/08 01:34:07;;;;;;;1.90;1.17;;;20.30;41.50;;;;;;5048592;28;20543;-46
2020/12/08 01:36:36;;;;;;;2.33;1.88;;;20.30;41.60;;;;;;5050482;28;20068;-47
2020/12/08 01:39:02;;;;;;;2.30;1.27;;;20.30;42.10;;;;;;5050289;28;20480;-43
2020/12/08 01:41:28;;;;;;;1.48;1.38;;;20.30;41.60;;;;;;5049895;28;20033;-49
2020/12/08 01:43:54;;;;;;;2.10;1.73;;;20.30;41.60;;;;;;5045075;28;20541;-44
2020/12/08 01:46:24;;;;;;;2.05;1.25;;;20.30;41.60;;;;;;5042752;28;20037;-45
2020/12/08 01:48:50;;;;;;;1.98;1.40;;;20.30;41.70;;;;;;5048027;28;20390;-46
2020/12/08 01:51:17;;;;;;;2.00;1.20;;;20.30;41.70;;;;;;5049206;28;20108;-45
2020/12/08 01:53:44;;;;;;;2.13;1.52;;;20.20;41.70;;;;;;5047253;28;20017;-49
2020/12/08 01:56:12;;;;;;;1.60;1.33;;;20.20;41.70;;;;;;5044938;28;20096;-44
2020/12/08 01:58:37;;;;;;;1.35;1.17;;;20.20;41.70;;;;;;5049185;28;20052;-49
2020/12/08 02:01:03;;;;;;;1.90;1.13;;;20.20;41.70;;;;;;5046027;28;20052;-44
2020/12/08 02:03:30;;;;;;;2.08;1.50;;;20.20;41.70;;;;;;5043959;28;20375;-46
2020/12/08 02:05:55;;;;;;;1.17;1.02;;;20.10;41.70;;;;;;5048487;28;20549;-44
2020/12/08 02:08:31;;;;;;;1.40;1.17;;;20.10;41.70;;;;;;5048568;28;20100;-44
2020/12/08 02:10:57;;;;;;;1.58;1.25;;;20.10;41.70;;;;;;5043802;28;20025;-47
2020/12/08 02:13:24;;;;;;;2.28;1.27;;;20.10;41.60;;;;;;5049831;28;20500;-43
2020/12/08 02:15:49;;;;;;;1.63;1.08;;;20.10;41.70;;;;;;5046075;28;20025;-47
2020/12/08 02:18:16;;;;;;;1.10;0.82;;;20.10;41.70;;;;;;5045149;28;20060;-49
2020/12/08 02:20:42;;;;;;;1.30;1.02;;;20.10;41.70;;;;;;5050648;28;20105;-45
2020/12/08 02:23:08;;;;;;;1.08;0.85;;;20.10;41.70;;;;;;5044758;28;20041;-44
2020/12/08 02:25:34;;;;;;;1.45;0.90;;;20.10;41.70;;;;;;5036153;28;20048;-44
2020/12/08 02:28:00;;;;;;;1.70;1.50;;;20.10;41.80;;;;;;5044122;28;20021;-45
2020/12/08 02:30:25;;;;;;;1.30;0.82;;;20.10;41.70;;;;;;5049180;28;20016;-48
2020/12/08 02:32:51;;;;;;;1.63;0.90;;;20.00;41.70;;;;;;5044949;28;20056;-46
2020/12/08 02:35:17;;;;;;;2.38;1.30;;;20.10;41.80;;;;;;5035354;28;20025;-45
2020/12/08 02:37:42;;;;;;;1.23;0.90;;;20.00;41.70;;;;;;5049766;28;20017;-45
2020/12/08 02:40:08;;;;;;;1.20;1.05;;;20.00;41.70;;;;;;5047736;28;20064;-45
2020/12/08 02:42:34;;;;;;;1.20;0.90;;;20.00;41.70;;;;;;5049041;28;20033;-43
2020/12/08 02:44:59;;;;;;;1.10;0.80;;;20.00;41.70;;;;;;5048354;28;20430;-46
2020/12/08 02:47:25;;;;;;;1.27;0.50;;;20.00;41.70;;;;;;5048088;28;20393;-46
2020/12/08 02:49:54;;;;;;;1.48;1.08;;;19.90;41.70;;;;;;5046539;28;20370;-45
2020/12/08 02:52:20;;;;;;;1.65;1.08;;;19.90;41.70;;;;;;5042289;28;20363;-48
2020/12/08 02:54:46;;;;;;;1.52;0.93;;;20.00;41.80;;;;;;5048868;28;20060;-46
2020/12/08 02:57:11;;;;;;;1.10;0.82;;;19.90;41.60;;;;;;5047791;28;20056;-48
2020/12/08 02:59:37;;;;;;;1.80;1.17;;;19.90;41.60;;;;;;5041978;28;20047;-48
2020/12/08 03:02:03;;;;;;;1.65;0.90;;;19.90;41.70;;;;;;5042820;28;20091;-44
2020/12/08 03:04:28;;;;;;;1.55;0.98;;;19.90;41.70;;;;;;5043294;28;20033;-46
2020/12/08 03:06:54;;;;;;;2.38;1.10;;;19.90;41.70;;;;;;5048559;28;20036;-48
2020/12/08 03:09:19;;;;;;;2.30;0.75;;;19.80;41.60;;;;;;5041934;28;20037;-47
2020/12/08 03:11:45;;;;;;;1.00;0.55;;;19.90;41.70;;;;;;5045379;28;20033;-44
2020/12/08 03:14:11;;;;;;;1.20;0.75;;;19.80;41.70;;;;;;5048450;28;20070;-46
2020/12/08 03:16:36;;;;;;;1.73;1.15;;;19.80;41.70;;;;;;5047695;28;20078;-45
2020/12/08 03:19:02;;;;;;;1.17;0.82;;;19.80;41.70;;;;;;5048700;28;20025;-45
2020/12/08 03:21:32;;;;;;;1.77;0.80;;;19.80;41.80;;;;;;5046485;28;20041;-44
2020/12/08 03:23:57;;;;;;;1.52;0.77;;;19.80;41.80;;;;;;5046793;28;20512;-47
2020/12/08 03:26:23;;;;;;;1.30;0.75;;;19.80;41.80;;;;;;5045214;28;20026;-47
2020/12/08 03:28:49;;;;;;;1.13;0.60;;;19.80;41.80;;;;;;5044846;28;20029;-44
2020/12/08 03:31:15;;;;;;;1.27;1.10;;;19.70;41.80;;;;;;5046682;28;20551;-47
2020/12/08 03:33:41;;;;;;;1.30;0.75;;;19.70;41.80;;;;;;5047156;28;20362;-44
2020/12/08 03:36:11;;;;;;;1.38;0.65;;;19.70;41.80;;;;;;5041469;28;20029;-44
2020/12/08 03:38:37;;;;;;;1.20;0.70;;;19.80;41.80;;;;;;5045567;28;20033;-47
2020/12/08 03:41:02;;;;;;;1.30;0.70;;;19.70;41.80;;;;;;5048331;28;20035;-46
2020/12/08 03:43:28;;;;;;;1.25;0.70;;;19.70;41.80;;;;;;5067209;22;20067;-53
2020/12/08 03:45:54;;;;;;;0.98;0.88;;;19.70;42.30;;;;;;5077192;28;20020;-53
2020/12/08 03:48:19;;;;;;;1.00;0.80;;;19.70;41.70;;;;;;5065929;28;20035;-53
2020/12/08 03:50:45;;;;;;;1.23;0.90;;;19.70;41.70;;;;;;5068750;28;20038;-53
2020/12/08 03:53:10;;;;;;;0.93;0.68;;;19.70;41.70;;;;;;5070684;28;20065;-54
2020/12/08 03:55:36;;;;;;;0.95;0.63;;;19.70;41.70;;;;;;5087657;28;20099;-53
2020/12/08 03:58:01;;;;;;;1.52;0.70;;;19.70;41.70;;;;;;5071505;28;20028;-53
2020/12/08 04:00:27;;;;;;;1.13;0.63;;;19.60;41.70;;;;;;5075864;28;20028;-54
2020/12/08 04:02:52;;;;;;;1.48;0.82;;;19.60;41.70;;;;;;5089434;28;20101;-53
2020/12/08 04:05:18;;;;;;;1.38;0.65;;;19.60;41.80;;;;;;5086318;28;20595;-53
2020/12/08 04:07:46;;;;;;;1.00;0.63;;;19.60;41.70;;;;;;5078988;28;20020;-53
2020/12/08 04:10:11;;;;;;;1.27;0.90;;;19.60;41.80;;;;;;5070439;28;20024;-53
2020/12/08 04:12:37;;;;;;;0.80;0.40;;;19.60;41.80;;;;;;5088187;28;20034;-54
2020/12/08 04:15:03;;;;;;;0.98;0.50;;;19.60;41.80;;;;;;5088278;28;20030;-53
2020/12/08 04:17:28;;;;;;;1.10;0.50;;;19.60;41.80;;;;;;5086730;28;20384;-53
2020/12/08 04:19:54;;;;;;;0.70;0.40;;;19.60;41.70;;;;;;5072481;28;20103;-53
2020/12/08 04:22:19;;;;;;;1.10;0.50;;;19.60;41.80;;;;;;5090123;28;20059;-53
2020/12/08 04:24:45;;;;;;;1.13;0.75;;;19.60;41.80;;;;;;5086216;28;20063;-53
2020/12/08 04:27:10;;;;;;;1.33;0.73;;;19.60;41.80;;;;;;5082330;28;20055;-53
2020/12/08 04:29:36;;;;;;;1.00;0.73;;;19.60;41.80;;;;;;5085582;28;20048;-53
2020/12/08 04:32:01;;;;;;;1.08;0.68;;;19.60;41.70;;;;;;5070436;28;20032;-53
2020/12/08 04:34:27;;;;;;;0.90;0.43;;;19.50;41.80;;;;;;5088180;28;20029;-53
2020/12/08 04:36:52;;;;;;;1.20;0.63;;;19.50;41.80;;;;;;5079142;28;20024;-52
2020/12/08 04:39:18;;;;;;;1.38;0.80;;;19.60;41.70;;;;;;5088766;28;20405;-54
2020/12/08 04:41:44;;;;;;;0.80;0.50;;;19.50;41.60;;;;;;5086796;28;20021;-54
2020/12/08 04:44:11;;;;;;;1.73;0.57;;;19.50;41.70;;;;;;5089970;28;20507;-53
2020/12/08 04:46:38;;;;;;;1.20;0.50;;;19.50;41.80;;;;;;5088560;28;20055;-53
2020/12/08 04:49:04;;;;;;;1.38;0.47;;;19.50;41.70;;;;;;5088664;28;20028;-53
2020/12/08 04:51:29;;;;;;;0.68;0.40;;;19.50;41.80;;;;;;5090778;28;20030;-52
2020/12/08 04:53:55;;;;;;;1.58;0.63;;;19.50;41.70;;;;;;5076221;28;20492;-53
2020/12/08 04:56:21;;;;;;;0.80;0.40;;;19.50;41.70;;;;;;5081264;28;20497;-53
2020/12/08 04:58:46;;;;;;;1.02;0.40;;;19.50;41.70;;;;;;5073906;28;20110;-53
2020/12/08 05:01:28;;;;;;;0.82;0.60;;;19.50;41.70;;;;;;5069958;28;20059;-53
2020/12/08 05:04:02;;;;;;;1.10;0.50;;;19.50;41.70;;;;;;5082102;28;20020;-53
2020/12/08 05:06:29;;;;;;;1.60;0.70;;;19.50;41.80;;;;;;5066006;28;20048;-53
2020/12/08 05:09:08;;;;;;;0.90;0.50;;;19.50;41.70;;;;;;5047947;28;20024;-54
2020/12/08 05:11:36;;;;;;;0.90;0.57;;;19.50;41.70;;;;;;5067009;28;20052;-53
2020/12/08 05:14:05;;;;;;;0.73;0.43;;;19.40;41.70;;;;;;5089858;28;20077;-53
2020/12/08 05:16:31;;;;;;;1.75;0.40;;;19.40;41.70;;;;;;5084251;28;20486;-52
2020/12/08 05:19:10;;;;;;;0.85;0.40;;;19.50;41.60;;;;;;5084516;28;20111;-54
2020/12/08 05:21:51;;;;;;;1.15;0.50;;;19.40;41.60;;;;;;5071259;28;20106;-53
2020/12/08 05:24:31;;;;;;;0.90;0.43;;;19.40;41.60;;;;;;5078415;28;20031;-54
2020/12/08 05:27:03;;;;;;;1.33;0.40;;;19.40;41.70;;;;;;5078222;28;20032;-52
2020/12/08 05:29:30;;;;;;;1.52;0.60;;;19.40;41.70;;;;;;5076890;28;20516;-53
2020/12/08 05:31:57;;;;;;;1.10;0.40;;;19.40;41.70;;;;;;5090622;28;20107;-54
2020/12/08 05:34:24;;;;;;;0.70;0.40;;;19.30;41.70;;;;;;5092091;28;20036;-53
2020/12/08 05:36:52;;;;;;;1.30;0.50;;;19.40;41.70;;;;;;5081187;28;20043;-53
2020/12/08 05:39:19;;;;;;;0.90;0.43;;;19.40;41.70;;;;;;5081457;28;20388;-54
2020/12/08 05:41:47;;;;;;;0.80;0.40;;;19.40;41.70;;;;;;5088723;28;20032;-53
2020/12/08 05:44:26;;;;;;;0.90;0.50;;;19.40;41.70;;;;;;5087035;28;20128;-53
2020/12/08 05:46:52;;;;;;;0.90;0.43;;;19.30;41.70;;;;;;5085239;28;20082;-54
2020/12/08 05:49:19;;;;;;;1.00;0.60;;;19.30;41.70;;;;;;5065312;28;20391;-54
2020/12/08 05:51:47;;;;;;;0.82;0.40;;;19.30;41.70;;;;;;5067605;28;20413;-52
2020/12/08 05:54:21;;;;;;;0.93;0.40;;;19.30;41.70;;;;;;5074454;28;20036;-54
2020/12/08 05:56:50;;;;;;;0.60;0.35;;;19.30;41.70;;;;;;5085273;28;20024;-53
2020/12/08 05:59:29;;;;;;;1.30;0.40;;;19.30;41.60;;;;;;5089443;28;20033;-52
2020/12/08 06:01:55;;;;;;;0.80;0.40;;;19.30;41.70;;;;;;5086504;28;20394;-53
2020/12/08 06:04:21;;;;;;;0.90;0.57;;;19.30;41.60;;;;;;5092007;28;20060;-54
2020/12/08 06:06:51;;;;;;;1.00;0.40;;;19.30;41.50;;;;;;5085596;28;20056;-54
2020/12/08 06:09:27;;;;;;;1.00;0.52;;;19.30;41.30;;;;;;5067487;28;20024;-53
2020/12/08 06:11:53;;;;;;;0.80;0.50;;;19.30;41.40;;;;;;5087143;28;20029;-54
2020/12/08 06:14:33;;;;;;;1.17;0.30;;;19.30;41.60;;;;;;5090084;28;20028;-55
2020/12/08 06:17:06;;;;;;;0.73;0.30;;;19.40;41.70;;;;;;5085843;28;20098;-54
2020/12/08 06:19:33;;;;;;;1.00;0.40;;;19.40;41.70;;;;;;5052041;28;20025;-52
2020/12/08 06:21:59;;;;;;;1.00;0.50;;;19.60;41.40;;;;;;5091922;28;20016;-52
2020/12/08 06:24:25;;;;;;;0.52;0.30;;;19.70;41.20;;;;;;5092324;28;20537;-52
2020/12/08 06:26:51;;;;;;;0.85;0.20;;;19.80;41.10;;;;;;5071144;28;20137;-52
2020/12/08 06:29:19;;;;;;;1.42;0.30;;;20.00;40.90;;;;;;5086145;28;20107;-52
2020/12/08 06:31:46;;;;;;;0.60;0.30;;;20.10;40.70;;;;;;5090629;28;20077;-52
2020/12/08 06:34:26;;;;;;;0.68;0.22;;;20.20;40.50;;;;;;5091577;28;20024;-52
2020/12/08 06:36:52;;;;;;;0.60;0.20;;;20.20;40.40;;;;;;5090973;28;20028;-52
2020/12/08 06:39:20;;;;;;;0.68;0.28;;;20.30;40.40;;;;;;5091103;28;20369;-52
2020/12/08 06:41:46;;;;;;;0.80;0.40;;;20.30;40.30;;;;;;5084726;28;20032;-52
2020/12/08 06:44:23;;;;;;;0.70;0.40;;;20.30;40.30;;;;;;5087254;28;20044;-52
2020/12/08 06:46:55;;;;;;;0.75;0.30;;;20.40;40.20;;;;;;5084203;28;20493;-53
2020/12/08 06:49:21;;;;;;;0.45;0.20;;;20.40;40.20;;;;;;5089243;28;20032;-53
2020/12/08 06:51:56;;;;;;;0.50;0.20;;;20.40;40.10;;;;;;5090837;28;20047;-53
2020/12/08 06:54:22;;;;;;;0.50;0.30;;;20.50;40.20;;;;;;5078426;28;20024;-53
2020/12/08 06:56:48;;;;;;;0.47;0.20;;;20.50;40.10;;;;;;5090137;28;20094;-52
2020/12/08 06:59:24;;;;;;;0.50;0.20;;;20.50;40.10;;;;;;5086261;28;20520;-53
2020/12/08 07:01:51;;;;;;;0.65;0.25;;;20.50;40.00;;;;;;5081615;28;20020;-53
2020/12/08 07:04:17;;;;;;;0.70;0.30;;;20.60;40.10;;;;;;5080179;28;20441;-53
2020/12/08 07:06:43;;;;;;;0.70;0.30;;;20.60;40.00;;;;;;5087114;28;20392;-52
2020/12/08 07:09:09;;;;;;;2.25;0.40;;;20.70;39.90;;;;;;5080038;28;20047;-53
2020/12/08 07:11:35;;;;;;;0.50;0.20;;;20.70;40.00;;;;;;5077151;28;20038;-53
2020/12/08 07:14:02;;;;;;;0.73;0.45;;;20.70;40.00;;;;;;5085859;28;21405;-52
2020/12/08 07:16:30;;;;;;;0.90;0.40;;;20.70;40.00;;;;;;5088272;28;20043;-52
2020/12/08 07:18:56;;;;;;;1.13;0.50;;;20.70;40.00;;;;;;5077624;28;20067;-52
2020/12/08 07:21:22;;;;;;;1.00;0.38;;;20.70;40.00;;;;;;5087296;28;20038;-53
2020/12/08 07:23:51;;;;;;;1.33;0.60;;;20.60;40.00;;;;;;5068317;28;20033;-52
2020/12/08 07:26:22;;;;;;;0.60;0.32;;;20.60;40.10;;;;;;5090115;28;20535;-52
2020/12/08 07:28:48;;;;;;;0.82;0.45;;;20.50;40.20;;;;;;5073484;28;20055;-53
2020/12/08 07:31:22;;;;;;;0.70;0.60;;;20.50;40.50;;;;;;5077542;28;20485;-53
2020/12/08 07:33:48;;;;;;;4.05;0.40;;;20.40;40.60;;;;;;5088814;28;20024;-52
2020/12/08 07:36:27;;;;;;;1.00;0.55;;;20.40;40.70;;;;;;5086771;28;20035;-53
2020/12/08 07:38:55;;;;;;;0.95;0.30;;;20.30;40.60;;;;;;5080348;28;20056;-53
2020/12/08 07:41:22;;;;;;;1.23;0.50;;;20.30;40.70;;;;;;5080554;28;20029;-53
2020/12/08 07:43:48;;;;;;;3.50;1.13;;;20.30;40.60;;;;;;5080121;28;20057;-53
2020/12/08 07:46:28;;;;;;;0.90;0.50;;;20.30;40.60;;;;;;5081348;28;20536;-53
2020/12/08 07:49:10;;;;;;;2.75;0.82;;;20.20;40.40;;;;;;5082086;28;20059;-52
2020/12/08 07:51:37;;;;;;;1.55;0.77;;;20.30;40.50;;;;;;5084071;28;20036;-53
2020/12/08 07:54:04;;;;;;;2.05;0.47;;;20.20;40.50;;;;;;5078994;28;20035;-48
2020/12/08 07:56:31;;;;;;;1.65;0.55;;;20.20;40.60;;;;;;5089063;28;20032;-52
2020/12/08 07:58:57;;;;;;;3.83;0.70;;;20.30;40.50;;;;;;5082301;28;20020;-53
2020/12/08 08:01:24;;;;;;;1.40;0.82;;;20.20;40.40;;;;;;5087243;28;20103;-52
2020/12/08 08:03:49;;;;;;;6.10;0.60;;;20.20;40.30;;;;;;5074302;28;20062;-50
2020/12/08 08:06:17;;;;;;;2.13;0.80;;;20.20;40.60;;;;;;5085328;28;20074;-53
2020/12/08 08:08:47;;;;;;;1.00;0.60;;;20.20;40.70;;;;;;5087201;28;20123;-52
2020/12/08 08:11:13;;;;;;;2.22;0.85;;;20.10;40.70;;;;;;5082196;28;20036;-52
2020/12/08 08:13:39;;;;;;;2.58;1.10;;;20.20;40.60;;;;;;5084284;28;20103;-52
2020/12/08 08:16:12;;;;;;;3.05;1.23;;;20.10;40.50;;;;;;5082064;28;20505;-52
2020/12/08 08:18:38;;;;;;;2.53;1.20;;;20.10;40.50;;;;;;5082593;28;20111;-49
2020/12/08 08:21:04;;;;;;;1.42;0.88;;;20.10;40.70;;;;;;5089697;28;20022;-49
2020/12/08 08:23:30;;;;;;;2.97;1.45;;;20.20;40.60;;;;;;5090001;28;20027;-48
2020/12/08 08:25:56;;;;;;;1.15;0.98;;;20.20;40.70;;;;;;5083410;28;20020;-49
2020/12/08 08:28:23;;;;;;;3.35;1.40;;;20.20;40.60;;;;;;5076743;28;20565;-47
2020/12/08 08:30:48;;;;;;;1.38;1.00;;;20.20;40.60;;;;;;5079595;28;20035;-46
2020/12/08 08:33:14;;;;;;;2.10;0.95;;;20.20;40.20;;;;;;5079402;28;20028;-48
2020/12/08 08:35:40;;;;;;;2.20;1.35;;;20.40;40.20;;;;;;5083533;28;20048;-50
2020/12/08 08:38:06;;;;;;;1.75;1.33;;;20.60;40.40;;;;;;5088361;28;20024;-48
2020/12/08 08:40:32;;;;;;;2.63;1.35;;;20.70;40.10;;;;;;5086736;28;20039;-50
2020/12/08 08:42:58;;;;;;;2.83;1.08;;;20.80;40.00;;;;;;5061208;28;20084;-49
2020/12/08 08:45:24;;;;;;;2.45;1.63;;;20.90;40.00;;;;;;5085498;28;20035;-48
2020/12/08 08:47:49;;;;;;;1.92;1.42;;;20.90;39.80;;;;;;5081921;28;20404;-49
2020/12/08 08:50:15;;;;;;;1.52;1.33;;;21.00;39.80;;;;;;5088181;28;20439;-48
2020/12/08 08:52:41;;;;;;;2.88;1.58;;;21.00;39.70;;;;;;5087777;28;20411;-49
2020/12/08 08:55:09;;;;;;;1.58;1.02;;;21.00;39.60;;;;;;5068660;28;20035;-47
2020/12/08 08:57:35;;;;;;;2.05;1.73;;;21.00;39.60;;;;;;5068186;28;20032;-48
2020/12/08 09:00:01;;;;;;;3.40;1.63;;;21.00;39.50;;;;;;5082801;28;20035;-48
2020/12/08 09:02:26;;;;;;;1.52;1.25;;;21.00;39.50;;;;;;5076290;28;20516;-49
2020/12/08 09:04:52;;;;;;;3.05;1.58;;;21.10;39.50;;;;;;5082005;28;20041;-47
2020/12/08 09:07:17;;;;;;;2.00;1.80;;;21.10;39.50;;;;;;5078779;28;20068;-48
2020/12/08 09:09:43;;;;;;;1.70;1.27;;;21.10;39.50;;;;;;5085696;28;20024;-49
2020/12/08 09:12:08;;;;;;;1.60;1.33;;;21.10;39.50;;;;;;5089997;28;20110;-48
2020/12/08 09:14:34;;;;;;;2.85;1.85;;;21.10;39.50;;;;;;5088040;28;20524;-46
2020/12/08 09:17:00;;;;;;;1.60;1.42;;;21.10;39.50;;;;;;5086528;28;20127;-45
2020/12/08 09:19:25;;;;;;;1.83;1.50;;;21.10;39.40;;;;;;5087721;28;20099;-45
2020/12/08 09:21:53;;;;;;;2.85;1.60;;;21.20;39.50;;;;;;5093707;28;20055;-47
2020/12/08 09:24:19;;;;;;;2.50;1.60;;;21.20;39.40;;;;;;5087456;28;20025;-46
2020/12/08 09:26:45;;;;;;;1.77;1.58;;;21.20;39.60;;;;;;5085286;28;20038;-47
2020/12/08 09:29:10;;;;;;;1.92;1.75;;;21.20;39.70;;;;;;5084965;28;20112;-47
2020/12/08 09:31:36;;;;;;;2.13;1.92;;;21.20;39.60;;;;;;5080178;28;20039;-47
2020/12/08 09:34:02;;;;;;;1.60;1.38;;;21.20;39.80;;;;;;5092218;28;20024;-51
2020/12/08 09:36:28;;;;;;;1.95;1.45;;;21.20;39.90;;;;;;5088247;28;20051;-49
2020/12/08 09:38:54;;;;;;;1.42;1.20;;;21.30;40.00;;;;;;5089155;28;20059;-48
2020/12/08 09:41:20;;;;;;;1.88;1.77;;;21.30;40.10;;;;;;5088029;28;20052;-48
2020/12/08 09:43:45;;;;;;;2.17;1.70;;;21.30;40.10;;;;;;5102886;22;20048;-44
2020/12/08 09:46:11;;;;;;;1.77;1.65;;;21.20;40.10;;;;;;5079026;28;20025;-45
2020/12/08 09:48:37;;;;;;;2.85;1.60;;;21.20;40.20;;;;;;5067023;28;20398;-45
2020/12/08 09:51:03;;;;;;;2.05;1.80;;;21.10;40.10;;;;;;5069187;28;20044;-43
2020/12/08 09:53:29;;;;;;;2.45;1.85;;;21.10;40.30;;;;;;5066640;28;20024;-46
2020/12/08 09:55:54;;;;;;;4.03;1.92;;;21.10;40.50;;;;;;5068673;28;20500;-43
2020/12/08 09:58:20;;;;;;;3.25;1.90;;;21.00;40.40;;;;;;5069495;28;20040;-49
2020/12/08 10:00:45;;;;;;;3.25;1.63;;;21.10;40.70;;;;;;5066152;28;20029;-49
2020/12/08 10:03:11;;;;;;;1.38;1.27;;;21.10;40.60;;;;;;5066563;28;20028;-46
2020/12/08 10:05:36;;;;;;;2.38;1.73;;;21.00;40.60;;;;;;5061476;28;20016;-47
2020/12/08 10:08:02;;;;;;;2.38;1.88;;;21.00;40.80;;;;;;5067193;28;20716;-45
2020/12/08 10:10:28;;;;;;;3.95;2.13;;;21.00;40.70;;;;;;5056440;28;20029;-49
2020/12/08 10:12:53;;;;;;;2.25;1.85;;;21.10;40.70;;;;;;5050535;28;20094;-43
2020/12/08 10:15:20;;;;;;;2.58;1.88;;;21.00;40.90;;;;;;5066993;28;20020;-45
2020/12/08 10:17:46;;;;;;;2.95;1.83;;;21.00;40.80;;;;;;5068487;28;20026;-46
2020/12/08 10:20:12;;;;;;;2.22;2.10;;;21.00;40.90;;;;;;5044189;28;20025;-53
2020/12/08 10:22:38;;;;;;;3.17;2.88;;;21.10;41.00;;;;;;5067993;28;20093;-46
2020/12/08 10:25:03;;;;;;;4.00;3.50;;;21.10;40.80;;;;;;5066882;28;20025;-48
2020/12/08 10:27:29;;;;;;;4.43;3.72;;;21.00;40.90;;;;;;5068055;28;20032;-44
2020/12/08 10:29:54;;;;;;;3.95;3.58;;;21.00;41.10;;;;;;5065124;28;20493;-45
2020/12/08 10:32:20;;;;;;;5.18;4.28;;;21.00;41.00;;;;;;5069106;28;20417;-45
2020/12/08 10:34:46;;;;;;;5.47;4.97;;;20.90;41.20;;;;;;5045769;28;20047;-44
2020/12/08 10:37:11;;;;;;;6.53;5.93;;;21.00;41.30;;;;;;5061265;28;20036;-45
2020/12/08 10:39:37;;;;;;;6.68;5.68;;;21.00;41.30;;;;;;5067279;28;20028;-44
2020/12/08 10:42:02;;;;;;;6.47;5.88;;;21.00;41.50;;;;;;5065309;28;20035;-46
2020/12/08 10:44:43;;;;;;;7.13;6.15;;;21.10;41.30;;;;;;5068097;28;20028;-47
2020/12/08 10:47:09;;;;;;;6.85;6.05;;;21.00;41.00;;;;;;5065565;28;20028;-42
2020/12/08 10:49:34;;;;;;;6.10;5.53;;;21.00;41.20;;;;;;5067972;28;20036;-46
2020/12/08 10:52:00;;;;;;;6.22;5.63;;;21.00;41.50;;;;;;5061566;28;20389;-48
2020/12/08 10:54:25;;;;;;;6.57;5.97;;;20.90;41.20;;;;;;5066075;28;20486;-50
2020/12/08 10:56:52;;;;;;;7.55;6.75;;;20.90;41.40;;;;;;5061233;28;20028;-44
2020/12/08 10:59:17;;;;;;;7.35;6.10;;;20.90;41.40;;;;;;5064287;28;20493;-48
2020/12/08 11:01:43;;;;;;;6.75;6.05;;;20.90;41.60;;;;;;5066039;28;20077;-47
2020/12/08 11:04:08;;;;;;;6.53;5.75;;;20.90;41.60;;;;;;5062297;28;20039;-45
2020/12/08 11:06:34;;;;;;;6.10;5.55;;;20.80;41.50;;;;;;5066801;28;20036;-38
2020/12/08 11:09:00;;;;;;;8.30;6.45;;;20.90;41.60;;;;;;5067817;28;20041;-42
2020/12/08 11:11:28;;;;;;;6.35;5.85;;;20.90;41.40;;;;;;5067517;28;20016;-49
2020/12/08 11:13:58;;;;;;;7.28;5.57;;;21.00;41.50;;;;;;5066716;28;20077;-44
2020/12/08 11:16:25;;;;;;;6.35;5.78;;;21.00;41.40;;;;;;5068249;28;20017;-43
2020/12/08 11:18:52;;;;;;;5.80;5.20;;;21.10;41.20;;;;;;5068244;28;20078;-47
2020/12/08 11:21:29;;;;;;;5.38;4.88;;;21.10;41.20;;;;;;5067968;28;20354;-46
2020/12/08 11:23:58;;;;;;;13.40;5.85;;;21.30;41.10;;;;;;5064618;28;20078;-46
2020/12/08 11:26:25;;;;;;;7.03;5.63;;;21.40;40.90;;;;;;5068036;28;20442;-45
2020/12/08 11:28:51;;;;;;;5.70;5.05;;;21.50;40.80;;;;;;5065198;28;20031;-46
2020/12/08 11:31:17;;;;;;;5.68;4.97;;;21.50;40.80;;;;;;5058797;28;20029;-45
2020/12/08 11:33:46;;;;;;;6.85;5.63;;;21.60;40.70;;;;;;5065953;28;20017;-46
2020/12/08 11:36:13;;;;;;;4.90;4.50;;;21.70;40.60;;;;;;5064165;28;20028;-43
2020/12/08 11:38:39;;;;;;;6.55;4.97;;;21.80;40.60;;;;;;5067686;28;20020;-44
2020/12/08 11:41:04;;;;;;;4.93;4.45;;;21.80;40.70;;;;;;5068339;28;20039;-45
2020/12/08 11:43:31;;;;;;;5.50;4.90;;;21.80;40.70;;;;;;5067654;28;20029;-45
2020/12/08 11:45:58;;;;;;;5.18;4.63;;;21.80;40.80;;;;;;5066225;28;20028;-45
2020/12/08 11:48:25;;;;;;;5.13;4.63;;;21.80;40.90;;;;;;5063268;28;20619;-46
2020/12/08 11:50:54;;;;;;;4.80;4.13;;;21.90;40.60;;;;;;5066114;28;20123;-45
2020/12/08 11:53:20;;;;;;;4.60;4.20;;;21.90;40.50;;;;;;5067384;28;20029;-45
2020/12/08 11:55:45;;;;;;;6.97;4.43;;;21.90;40.40;;;;;;5062957;28;20039;-47
2020/12/08 11:58:11;;;;;;;5.97;4.72;;;21.90;40.40;;;;;;5062583;28;20380;-52
2020/12/08 12:00:37;;;;;;;5.03;3.80;;;22.00;40.50;;;;;;5061523;28;20125;-50
2020/12/08 12:03:03;;;;;;;4.60;4.18;;;22.00;40.50;;;;;;5062206;28;20040;-48
2020/12/08 12:05:29;;;;;;;4.63;4.15;;;22.00;40.50;;;;;;5065589;28;20401;-53
2020/12/08 12:07:54;;;;;;;4.75;4.35;;;22.10;40.50;;;;;;5063717;28;20033;-45
2020/12/08 12:10:20;;;;;;;4.53;4.20;;;22.10;40.60;;;;;;5063154;28;20029;-47
2020/12/08 12:12:45;;;;;;;4.18;3.88;;;22.20;40.70;;;;;;5061829;28;20074;-46
2020/12/08 12:15:20;;;;;;;6.25;4.53;;;22.10;40.60;;;;;;5064264;28;20028;-45
2020/12/08 12:17:46;;;;;;;4.20;3.88;;;22.20;40.90;;;;;;5061030;28;20443;-45
2020/12/08 12:20:12;;;;;;;4.63;3.95;;;22.10;40.90;;;;;;5054856;28;20087;-46
2020/12/08 12:22:38;;;;;;;3.90;3.55;;;22.10;41.10;;;;;;5064854;28;20086;-47
2020/12/08 12:25:04;;;;;;;3.95;3.65;;;22.10;40.80;;;;;;5067848;28;20028;-45
2020/12/08 12:27:30;;;;;;;3.85;3.42;;;22.10;40.90;;;;;;5066498;28;20040;-46
2020/12/08 12:29:56;;;;;;;4.15;3.80;;;22.10;40.90;;;;;;5065719;28;20036;-46
2020/12/08 12:32:22;;;;;;;6.53;4.20;;;22.20;40.80;;;;;;5066017;28;20074;-42
2020/12/08 12:34:47;;;;;;;4.22;3.75;;;22.20;40.70;;;;;;5061616;28;20024;-44
2020/12/08 12:37:14;;;;;;;4.63;3.85;;;22.20;40.90;;;;;;5062575;28;20579;-43
2020/12/08 12:39:39;;;;;;;3.90;3.50;;;22.20;40.90;;;;;;5064556;28;20036;-44
2020/12/08 12:42:05;;;;;;;3.50;3.22;;;22.20;41.10;;;;;;5064391;28;20036;-45
2020/12/08 12:44:31;;;;;;;4.15;3.75;;;22.10;41.10;;;;;;5070148;28;20036;-43
2020/12/08 12:46:56;;;;;;;4.53;3.75;;;22.10;41.20;;;;;;5064521;28;20032;-43